Pagrindinis puslapis
METAR-TAF:

METAR-TAF

Oro uostai :

Odensė, Danija

platuma: 55-29N, ilguma: 010-20E, Aukštis: 17 m

Dabartinis oras

Ataskaita buvo paskelbta 2 valandos ir 27 minutes, ne 13:50 UTC
Vėjas 14 kt iš Vakarų
Temperatūra 7°C
Drėgmė 87%
Slėgis 1002 hPa
Matomumas 10 km arba daugiau
Mažai debesys ne aukštis 2500 ft
Išsisklaidę debesys ne aukštis 18000 ft

METAR: EKOD 071350Z 26014KT 9999 FEW025 SCT180 07/05 Q1002

Laikas: 17:17 (16:17 UTC)

Prognozė

Ataskaita buvo paskelbta 7 valandos ir 25 minutes, ne 08:52 UTC
Prognozė galioja nuo 07 metu 09 UTC su 07 metu 12 UTC
Vėjas 14 kt iš Vakarų
Matomumas 10 km arba daugiau
Išsisklaidę debesys ne aukštis 3000 ft

TAF: EKOD 070852Z 0709/0712 28014KT 9999 SCT030

Orai ataskaitas ir orų prognozės (METAR, TAF).

turimą stotys yra geltonos ir raudonos taškus žemėlapyje.

Perkelti pele per norėdami pamatyti stoties vardą.

Tada spustelėkite, norėdami matyti oro stebėjimo ir prognozės.

Norėdami pakeisti žemėlapį: spustelėkite ant žalios mygtukų su juodo kryžiaus žemyn,; žalią mygtuką su brūkšneliu, jei norite nutolinti; arba žalių rodyklių gretimoms žemėlapius.


METAR-TAF: